Berlinville, Ohio
Current Conditions -  °F | °C
As of 8:53 AM on Thursday 29 Jan 2015 (Local Time) from KLPR Reporting Station
Overcast Overcast  
Wind Chill: 19°   Ceiling: 5500
Heat Index: 32°   Visibility: 10mi
Dew Point: 21°   Wind: 24mph
Humidity: 64%   Direction: 190°S
Pressure: 29.83"   Gusts: 29mph
Location:  41.3216°N, 82.4633°W
Report Text: KLPR 291353Z AUTO 19021G25KT 10SM OVC055 00/M06 A2983 RMK AO2 PK WND 19027/1255 UPB35E45SNE12 SLP110 P0000 T00001061 TSNO
Loading
Personal Weather Stations






























Interactive Weather Map New forecast layout! Learn more

10-Day Weather Forecast

Advertisements
Track Severe Weather on mobile